Time;durP1;ratioP1;P1;durP2;ratioP2;P2;SDS_P1;SDS_P2;PMS_P1;PMS_P2;Temp;Humidity;BMP_temperature;BMP_pressure;BME280_temperature;BME280_humidity;BME280_pressure;Samples;Min_cycle;Max_cycle;Signal;HPM_P1;HPM_P2
2022/04/12 00:01:02;;;;;;;2.40;2.20;;;18.10;39.80;;;;;;5062690;28;20314;-56
2022/04/12 00:03:28;;;;;;;1.90;1.80;;;18.10;39.70;;;;;;5064872;28;20433;-56
2022/04/12 00:05:54;;;;;;;2.43;1.93;;;18.10;39.80;;;;;;5063191;28;20418;-56
2022/04/12 00:08:20;;;;;;;2.13;1.93;;;18.10;39.80;;;;;;5065355;28;20576;-56
2022/04/12 00:10:46;;;;;;;2.33;2.13;;;18.10;39.80;;;;;;5064354;28;20481;-55
2022/04/12 00:13:12;;;;;;;2.27;2.17;;;18.10;39.70;;;;;;5060109;28;20526;-57
2022/04/12 00:15:39;;;;;;;2.20;2.10;;;18.10;39.80;;;;;;5060214;28;20685;-57
2022/04/12 00:20:49;;;;;;;1.87;1.73;;;18.10;39.80;;;;;;5064741;28;20950;-55
2022/04/12 00:23:15;;;;;;;2.10;1.90;;;18.10;39.80;;;;;;5065362;28;20409;-56
2022/04/12 00:25:45;;;;;;;2.47;2.37;;;18.10;39.80;;;;;;5062687;28;20217;-55
2022/04/12 00:28:12;;;;;;;2.70;2.50;;;18.10;39.80;;;;;;5063238;28;20222;-56
2022/04/12 00:30:38;;;;;;;3.03;2.27;;;18.10;39.80;;;;;;5063675;28;21147;-55
2022/04/12 00:33:03;;;;;;;2.03;1.93;;;18.10;39.80;;;;;;5058325;28;20425;-55
2022/04/12 00:35:29;;;;;;;2.40;2.23;;;18.10;39.80;;;;;;5060840;28;20462;-56
2022/04/12 00:37:55;;;;;;;2.30;2.10;;;18.10;39.80;;;;;;5060133;28;20475;-56
2022/04/12 00:40:24;;;;;;;1.90;1.80;;;18.10;39.80;;;;;;5067272;28;20229;-56
2022/04/12 00:42:51;;;;;;;2.20;2.10;;;18.10;39.80;;;;;;5061227;28;20229;-56
2022/04/12 00:45:17;;;;;;;2.23;2.03;;;18.10;39.80;;;;;;5062018;28;20458;-56
2022/04/12 00:47:43;;;;;;;2.23;2.03;;;18.10;39.80;;;;;;5064401;28;20433;-56
2022/04/12 00:50:10;;;;;;;2.10;2.00;;;18.10;39.80;;;;;;5058045;28;20421;-57
2022/04/12 00:52:41;;;;;;;2.00;1.90;;;18.10;39.80;;;;;;5059189;28;20500;-56
2022/04/12 00:55:07;;;;;;;2.43;2.23;;;18.10;39.80;;;;;;5059839;28;20425;-56
2022/04/12 00:57:33;;;;;;;2.00;1.90;;;18.10;39.80;;;;;;5061250;28;20437;-56
2022/04/12 01:00:00;;;;;;;1.97;1.87;;;18.10;39.80;;;;;;5065255;28;20425;-56
2022/04/12 01:02:26;;;;;;;1.90;1.80;;;18.10;40.60;;;;;;5065186;28;20557;-56
2022/04/12 01:04:52;;;;;;;1.90;1.80;;;18.10;39.80;;;;;;5059329;28;20538;-56
2022/04/12 01:07:18;;;;;;;2.10;2.00;;;18.10;39.90;;;;;;5060943;28;20714;-55
2022/04/12 01:09:45;;;;;;;2.00;1.90;;;18.10;39.80;;;;;;5061214;28;20222;-56
2022/04/12 01:12:11;;;;;;;1.70;1.60;;;18.10;39.80;;;;;;5057985;28;20500;-55
2022/04/12 01:14:37;;;;;;;1.83;1.73;;;18.10;39.90;;;;;;5064958;28;20426;-56
2022/04/12 01:17:07;;;;;;;1.93;1.83;;;18.10;39.80;;;;;;5061320;28;20222;-56
2022/04/12 01:19:33;;;;;;;1.93;1.83;;;18.10;39.90;;;;;;5062286;28;20426;-56
2022/04/12 01:22:03;;;;;;;1.83;1.73;;;18.10;40.60;;;;;;5061025;28;20509;-56
2022/04/12 01:24:30;;;;;;;2.43;2.33;;;18.10;39.80;;;;;;5066510;28;20554;-56
2022/04/12 01:26:57;;;;;;;2.03;1.93;;;18.10;39.80;;;;;;5056351;28;20422;-56
2022/04/12 01:29:23;;;;;;;2.30;2.20;;;18.10;39.90;;;;;;5060193;28;20476;-57
2022/04/12 01:31:49;;;;;;;2.03;1.93;;;18.10;39.80;;;;;;5056941;28;20471;-56
2022/04/12 01:34:14;;;;;;;1.93;1.83;;;18.10;39.90;;;;;;5060335;28;20466;-56
2022/04/12 01:36:40;;;;;;;1.90;1.80;;;18.10;39.80;;;;;;5060441;28;20300;-55
2022/04/12 01:39:05;;;;;;;1.60;1.50;;;18.10;39.90;;;;;;5063630;28;20237;-58
2022/04/12 01:41:31;;;;;;;1.73;1.63;;;18.10;39.80;;;;;;5059794;28;20283;-56
2022/04/12 01:43:57;;;;;;;1.77;1.67;;;18.10;39.90;;;;;;5060872;28;20691;-56
2022/04/12 01:46:23;;;;;;;1.90;1.80;;;18.10;39.90;;;;;;5063139;28;20553;-56
2022/04/12 01:48:49;;;;;;;2.50;1.87;;;18.10;39.90;;;;;;5060423;28;20227;-56
2022/04/12 01:51:16;;;;;;;2.10;2.00;;;18.10;39.90;;;;;;5058675;28;20222;-57
2022/04/12 01:53:42;;;;;;;2.23;2.13;;;18.10;39.90;;;;;;5064430;28;20798;-56
2022/04/12 01:56:08;;;;;;;1.93;1.83;;;18.10;39.90;;;;;;5058045;28;20442;-56
2022/04/12 01:58:34;;;;;;;1.50;1.40;;;18.10;39.90;;;;;;5063761;28;20495;-55
2022/04/12 02:01:00;;;;;;;1.90;1.80;;;18.10;39.90;;;;;;5058907;28;20218;-56
2022/04/12 02:03:26;;;;;;;1.93;1.77;;;18.10;39.90;;;;;;5061283;28;20836;-56
2022/04/12 02:05:51;;;;;;;2.00;1.90;;;18.10;39.90;;;;;;5060169;28;20246;-56
2022/04/12 02:08:18;;;;;;;1.73;1.63;;;18.10;39.90;;;;;;5059047;28;20222;-56
2022/04/12 02:10:43;;;;;;;1.80;1.53;;;18.10;39.90;;;;;;5058287;28;20305;-57
2022/04/12 02:13:09;;;;;;;1.90;1.80;;;18.10;39.90;;;;;;5063070;28;20512;-55
2022/04/12 02:15:35;;;;;;;1.50;1.40;;;18.10;39.90;;;;;;5066426;28;20222;-56
2022/04/12 02:18:01;;;;;;;3.00;1.87;;;18.00;39.80;;;;;;5044410;28;20229;-56
2022/04/12 02:20:27;;;;;;;2.00;1.90;;;18.00;39.80;;;;;;5064331;28;20434;-56
2022/04/12 02:22:53;;;;;;;2.13;2.03;;;18.00;39.90;;;;;;5061340;28;20230;-55
2022/04/12 02:25:19;;;;;;;1.73;1.63;;;18.00;39.80;;;;;;5061968;28;20787;-56
2022/04/12 02:27:44;;;;;;;1.80;1.70;;;18.00;39.90;;;;;;5059513;28;20305;-56
2022/04/12 02:30:12;;;;;;;2.33;1.80;;;18.00;39.90;;;;;;5056526;28;20238;-57
2022/04/12 02:32:38;;;;;;;1.80;1.70;;;18.00;39.90;;;;;;5057793;28;20680;-56
2022/04/12 02:35:04;;;;;;;1.87;1.77;;;18.10;40.00;;;;;;5062831;28;20440;-56
2022/04/12 02:37:30;;;;;;;1.63;1.53;;;18.00;39.80;;;;;;5057589;28;20925;-56
2022/04/12 02:39:56;;;;;;;2.40;1.77;;;18.10;39.90;;;;;;5062533;28;20480;-56
2022/04/12 02:42:21;;;;;;;1.77;1.67;;;18.00;39.80;;;;;;5061525;28;20276;-56
2022/04/12 02:44:47;;;;;;;1.67;1.57;;;18.10;39.90;;;;;;5059878;28;20221;-56
2022/04/12 02:47:12;;;;;;;1.80;1.70;;;18.10;39.90;;;;;;5056305;28;20271;-56
2022/04/12 02:49:38;;;;;;;1.87;1.77;;;18.10;39.90;;;;;;5060211;28;20256;-56
2022/04/12 02:52:04;;;;;;;1.70;1.60;;;18.10;40.00;;;;;;5060344;28;20230;-56
2022/04/12 02:54:29;;;;;;;1.50;1.40;;;18.00;39.80;;;;;;5062661;28;20241;-57
2022/04/12 02:56:55;;;;;;;1.43;1.33;;;18.10;39.90;;;;;;5056802;28;20437;-56
2022/04/12 02:59:20;;;;;;;2.37;1.40;;;18.10;40.00;;;;;;5061600;28;20226;-58
2022/04/12 03:01:46;;;;;;;1.60;1.50;;;18.00;39.90;;;;;;5063131;28;20214;-57
2022/04/12 03:04:11;;;;;;;1.60;1.50;;;18.00;39.80;;;;;;5063543;28;20233;-55
2022/04/12 03:06:37;;;;;;;2.00;1.90;;;18.10;40.00;;;;;;5066414;28;20687;-56
2022/04/12 03:09:03;;;;;;;1.77;1.67;;;18.10;40.00;;;;;;5059133;28;20230;-56
2022/04/12 03:11:28;;;;;;;1.73;1.63;;;18.10;40.00;;;;;;5066600;28;20308;-56
2022/04/12 03:13:54;;;;;;;1.80;1.70;;;18.00;39.90;;;;;;5062868;28;20612;-56
2022/04/12 03:16:19;;;;;;;2.23;1.57;;;18.00;39.90;;;;;;5066615;28;20224;-56
2022/04/12 03:18:45;;;;;;;1.70;1.60;;;18.00;39.90;;;;;;5060870;28;20222;-56
2022/04/12 03:21:11;;;;;;;1.80;1.70;;;18.10;40.00;;;;;;5064378;28;20228;-56
2022/04/12 03:23:37;;;;;;;1.77;1.67;;;18.00;39.80;;;;;;5058456;28;20323;-55
2022/04/12 03:26:03;;;;;;;1.53;1.43;;;18.10;40.00;;;;;;5060231;28;20680;-56
2022/04/12 03:28:29;;;;;;;1.60;1.50;;;18.00;39.80;;;;;;5069097;28;20233;-56
2022/04/12 03:30:55;;;;;;;1.73;1.63;;;18.00;39.90;;;;;;5062702;28;20442;-56
2022/04/12 03:33:20;;;;;;;1.70;1.60;;;18.00;39.90;;;;;;5063830;28;20236;-56
2022/04/12 03:35:46;;;;;;;1.40;1.30;;;18.00;39.90;;;;;;5062859;28;20232;-56
2022/04/12 03:38:14;;;;;;;1.53;1.43;;;18.00;39.90;;;;;;5065422;28;20284;-56
2022/04/12 03:40:41;;;;;;;1.70;1.60;;;18.00;40.00;;;;;;5059038;28;20704;-56
2022/04/12 03:43:07;;;;;;;1.70;1.60;;;18.10;40.00;;;;;;5060585;28;20417;-56
2022/04/12 03:45:33;;;;;;;1.73;1.63;;;18.00;39.80;;;;;;5061199;28;20949;-56
2022/04/12 03:48:00;;;;;;;1.60;1.50;;;18.10;39.90;;;;;;5060690;28;20222;-56
2022/04/12 03:50:26;;;;;;;1.67;1.57;;;18.10;39.90;;;;;;5062983;28;20518;-55
2022/04/12 03:52:52;;;;;;;1.70;1.60;;;18.00;40.70;;;;;;5066241;28;20529;-56
2022/04/12 03:55:30;;;;;;;1.40;1.30;;;18.00;39.90;;;;;;5064862;28;20321;-56
2022/04/12 03:58:01;;;;;;;1.50;1.40;;;18.00;39.90;;;;;;5063771;28;20508;-56
2022/04/12 04:00:27;;;;;;;1.80;1.70;;;18.10;40.00;;;;;;5066609;28;20421;-55
2022/04/12 04:02:53;;;;;;;1.57;1.47;;;18.10;40.00;;;;;;5059446;28;20430;-56
2022/04/12 04:05:19;;;;;;;1.90;1.80;;;18.00;39.90;;;;;;5062894;28;20433;-56
2022/04/12 04:07:45;;;;;;;1.50;1.40;;;18.00;39.90;;;;;;5058865;28;20528;-56
2022/04/12 04:10:10;;;;;;;1.70;1.60;;;18.00;39.90;;;;;;5063758;28;20223;-56
2022/04/12 04:12:36;;;;;;;1.50;1.40;;;18.00;39.90;;;;;;5063681;28;20287;-55
2022/04/12 04:15:05;;;;;;;1.70;1.60;;;18.00;39.90;;;;;;5065161;28;20233;-56
2022/04/12 04:17:31;;;;;;;1.50;1.40;;;18.00;39.90;;;;;;5061015;28;20229;-56
2022/04/12 04:19:57;;;;;;;1.50;1.40;;;18.00;39.90;;;;;;5064796;28;20861;-56
2022/04/12 04:22:23;;;;;;;2.00;1.90;;;18.00;40.70;;;;;;5065524;28;20254;-56
2022/04/12 04:24:49;;;;;;;2.27;2.00;;;18.00;39.90;;;;;;5058191;28;20453;-56
2022/04/12 04:27:16;;;;;;;1.70;1.60;;;18.00;39.90;;;;;;5067235;28;20674;-56
2022/04/12 04:29:42;;;;;;;1.40;1.30;;;18.00;39.90;;;;;;5063922;28;20225;-57
2022/04/12 04:32:08;;;;;;;1.60;1.50;;;18.00;39.90;;;;;;5063973;28;20416;-56
2022/04/12 04:34:33;;;;;;;1.60;1.50;;;18.00;39.90;;;;;;5062554;28;20278;-55
2022/04/12 04:36:59;;;;;;;1.70;1.60;;;18.00;39.90;;;;;;5067016;28;20474;-56
2022/04/12 04:39:25;;;;;;;1.90;1.80;;;18.00;39.90;;;;;;5055448;28;20265;-57
2022/04/12 04:41:50;;;;;;;2.33;1.60;;;18.00;39.90;;;;;;5061106;28;20226;-56
2022/04/12 04:44:16;;;;;;;1.80;1.70;;;18.00;40.10;;;;;;5062025;28;20745;-57
2022/04/12 04:46:42;;;;;;;2.23;2.03;;;18.10;40.00;;;;;;5061229;28;20300;-59
2022/04/12 04:49:08;;;;;;;1.57;1.47;;;18.00;39.90;;;;;;5062057;28;20488;-57
2022/04/12 04:51:35;;;;;;;1.53;1.43;;;18.00;39.90;;;;;;5062865;28;20583;-58
2022/04/12 04:54:01;;;;;;;3.90;1.40;;;18.10;40.00;;;;;;5064152;28;20726;-58
2022/04/12 04:56:27;;;;;;;1.87;1.30;;;18.10;40.00;;;;;;5059606;28;20483;-56
2022/04/12 04:58:53;;;;;;;2.13;1.50;;;18.00;39.90;;;;;;5060829;28;20747;-57
2022/04/12 05:01:20;;;;;;;1.30;1.20;;;18.10;40.00;;;;;;5057115;28;20418;-56
2022/04/12 05:03:50;;;;;;;1.40;1.30;;;18.00;39.90;;;;;;5060033;28;20222;-56
2022/04/12 05:06:15;;;;;;;1.47;1.37;;;18.10;39.90;;;;;;5060596;28;20518;-55
2022/04/12 05:08:41;;;;;;;1.83;1.73;;;18.10;39.90;;;;;;5063783;28;21030;-56
2022/04/12 05:11:07;;;;;;;1.70;1.47;;;18.10;39.90;;;;;;5067030;28;20297;-55
2022/04/12 05:13:32;;;;;;;1.50;1.40;;;18.10;39.90;;;;;;5063933;28;20725;-57
2022/04/12 05:15:58;;;;;;;1.27;1.17;;;18.10;39.90;;;;;;5056347;28;20653;-59
2022/04/12 05:18:23;;;;;;;1.50;1.40;;;18.10;39.90;;;;;;5062360;28;20642;-56
2022/04/12 05:20:49;;;;;;;2.87;1.50;;;18.10;39.90;;;;;;5062607;28;20240;-56
2022/04/12 05:23:16;;;;;;;2.00;1.47;;;18.10;39.90;;;;;;5058902;28;20305;-56
2022/04/12 05:25:41;;;;;;;1.83;1.60;;;18.10;39.80;;;;;;5065103;28;20515;-55
2022/04/12 05:28:07;;;;;;;1.60;1.50;;;18.10;39.80;;;;;;5065736;28;20508;-57
2022/04/12 05:30:33;;;;;;;3.33;1.40;;;18.10;39.80;;;;;;5065222;28;23165;-56
2022/04/12 05:32:59;;;;;;;1.83;1.27;;;18.10;39.80;;;;;;5060086;28;20956;-56
2022/04/12 05:35:24;;;;;;;1.97;1.40;;;18.10;39.70;;;;;;5062346;28;20238;-55
2022/04/12 05:37:52;;;;;;;1.50;1.40;;;18.20;39.80;;;;;;5058364;28;20425;-56
2022/04/12 05:40:19;;;;;;;1.50;1.40;;;18.20;39.80;;;;;;5059195;28;20240;-57
2022/04/12 05:42:45;;;;;;;2.27;1.50;;;18.20;39.70;;;;;;5062062;28;20415;-56
2022/04/12 05:45:12;;;;;;;1.50;1.40;;;18.20;39.70;;;;;;5065128;28;20488;-57
2022/04/12 05:47:49;;;;;;;3.10;2.80;;;18.20;39.70;;;;;;5064560;28;20508;-57
2022/04/12 05:50:16;;;;;;;1.60;1.50;;;18.20;39.70;;;;;;5062580;28;20425;-56
2022/04/12 05:52:42;;;;;;;2.80;1.60;;;18.20;39.70;;;;;;5059850;28;20427;-56
2022/04/12 05:55:10;;;;;;;1.80;1.70;;;18.20;39.70;;;;;;5056250;28;20426;-56
2022/04/12 05:57:38;;;;;;;1.70;1.60;;;18.20;39.70;;;;;;5059607;28;20462;-56
2022/04/12 06:00:06;;;;;;;1.70;1.60;;;18.20;39.70;;;;;;5063372;28;20417;-57
2022/04/12 06:02:32;;;;;;;1.90;1.80;;;18.20;39.70;;;;;;5063951;28;20508;-57
2022/04/12 06:04:58;;;;;;;1.90;1.80;;;18.30;39.80;;;;;;5061896;28;20524;-58
2022/04/12 06:07:30;;;;;;;1.70;1.60;;;18.30;39.80;;;;;;5061050;28;20267;-56
2022/04/12 06:09:55;;;;;;;2.00;1.90;;;18.30;39.70;;;;;;5057843;28;20334;-56
2022/04/12 06:12:21;;;;;;;2.03;1.90;;;18.30;39.80;;;;;;5057776;28;20545;-58
2022/04/12 06:14:46;;;;;;;2.70;2.50;;;18.30;39.80;;;;;;5063243;28;20229;-56
2022/04/12 06:17:12;;;;;;;1.83;1.70;;;18.30;39.80;;;;;;5060121;28;20225;-58
2022/04/12 06:19:37;;;;;;;2.67;2.37;;;18.30;39.80;;;;;;5062968;28;20229;-57
2022/04/12 06:22:03;;;;;;;9.67;5.70;;;18.30;39.80;;;;;;5043180;28;20241;-57
2022/04/12 06:24:28;;;;;;;13.57;6.90;;;18.30;39.70;;;;;;5057420;28;20227;-56
2022/04/12 06:26:54;;;;;;;13.57;6.90;;;18.40;39.70;;;;;;5060580;28;20225;-57
2022/04/12 06:29:19;;;;;;;3.43;2.77;;;18.40;39.60;;;;;;5059093;28;20290;-56
2022/04/12 06:31:45;;;;;;;3.53;2.40;;;18.40;39.60;;;;;;5058635;28;20230;-56
2022/04/12 06:34:10;;;;;;;3.97;2.70;;;18.40;39.60;;;;;;5057413;28;20241;-57
2022/04/12 06:36:36;;;;;;;6.10;2.73;;;18.40;39.50;;;;;;5058702;28;20260;-56
2022/04/12 06:39:02;;;;;;;3.40;2.80;;;18.40;39.60;;;;;;5059103;28;20253;-57
2022/04/12 06:41:27;;;;;;;4.67;2.90;;;18.40;39.60;;;;;;5060264;28;20256;-57
2022/04/12 06:43:53;;;;;;;3.33;3.00;;;18.40;39.70;;;;;;5061556;28;20770;-57
2022/04/12 06:46:18;;;;;;;2.63;2.40;;;18.40;39.70;;;;;;5059496;28;20226;-57
2022/04/12 06:48:44;;;;;;;3.80;3.50;;;18.40;39.70;;;;;;5043880;28;20231;-57
2022/04/12 06:51:09;;;;;;;3.47;2.60;;;18.40;39.70;;;;;;5064563;28;20697;-56
2022/04/12 06:53:35;;;;;;;3.00;2.70;;;18.40;39.80;;;;;;5055706;28;20256;-56
2022/04/12 06:56:01;;;;;;;2.53;2.33;;;18.40;39.80;;;;;;5060348;28;20249;-57
2022/04/12 06:58:26;;;;;;;3.50;2.90;;;18.40;39.80;;;;;;5058302;28;20226;-57
2022/04/12 07:00:52;;;;;;;3.63;2.77;;;18.40;39.90;;;;;;5058884;28;20245;-57
2022/04/12 07:03:17;;;;;;;4.57;3.10;;;18.40;39.80;;;;;;5062970;28;20226;-56
2022/04/12 07:05:43;;;;;;;3.17;2.97;;;18.40;39.80;;;;;;5060944;28;20229;-56
2022/04/12 07:08:11;;;;;;;3.00;2.80;;;18.40;39.90;;;;;;5059991;28;20218;-57
2022/04/12 07:10:36;;;;;;;3.30;3.00;;;18.40;39.90;;;;;;5060105;28;20225;-56
2022/04/12 07:13:02;;;;;;;4.10;3.23;;;18.40;39.90;;;;;;5057398;28;20434;-56
2022/04/12 07:15:28;;;;;;;5.80;3.20;;;18.40;39.90;;;;;;5056271;28;20218;-57
2022/04/12 07:17:53;;;;;;;5.90;2.77;;;18.40;39.90;;;;;;5060820;28;20237;-57
2022/04/12 07:20:20;;;;;;;5.70;2.93;;;18.40;39.90;;;;;;5061615;28;20577;-56
2022/04/12 07:22:45;;;;;;;5.33;2.50;;;18.40;39.90;;;;;;5056970;28;20209;-57
2022/04/12 07:25:11;;;;;;;3.10;2.80;;;18.40;39.90;;;;;;5056771;28;20934;-56
2022/04/12 07:27:37;;;;;;;4.63;3.07;;;18.40;39.90;;;;;;5060449;28;20684;-56
2022/04/12 07:30:07;;;;;;;4.30;2.90;;;18.40;39.90;;;;;;5058157;28;20226;-56
2022/04/12 07:32:33;;;;;;;4.93;3.20;;;18.40;39.90;;;;;;5059763;28;20425;-56
2022/04/12 07:34:59;;;;;;;3.43;3.13;;;18.40;40.00;;;;;;5063542;28;20475;-56
2022/04/12 07:37:24;;;;;;;6.60;3.30;;;18.40;40.00;;;;;;5063233;28;20287;-56
2022/04/12 07:39:50;;;;;;;3.40;3.10;;;18.40;40.00;;;;;;5061957;28;20218;-54
2022/04/12 07:42:16;;;;;;;3.60;3.17;;;18.40;40.00;;;;;;5064440;28;20225;-53
2022/04/12 07:44:42;;;;;;;3.67;2.67;;;18.40;40.00;;;;;;5056789;28;20222;-53
2022/04/12 07:47:08;;;;;;;3.90;3.47;;;18.40;40.00;;;;;;5062023;28;20433;-56
2022/04/12 07:49:33;;;;;;;3.00;2.50;;;18.40;40.00;;;;;;5066893;28;20275;-57
2022/04/12 07:51:59;;;;;;;4.13;3.60;;;18.40;40.00;;;;;;5060477;28;20603;-57
2022/04/12 07:54:25;;;;;;;3.07;2.77;;;18.40;40.00;;;;;;5060494;28;20244;-56
2022/04/12 07:56:51;;;;;;;3.83;2.90;;;18.40;40.00;;;;;;5058786;28;20224;-57
2022/04/12 07:59:17;;;;;;;3.17;2.90;;;18.40;40.00;;;;;;5064004;28;20624;-56
2022/04/12 08:01:42;;;;;;;2.77;2.57;;;18.40;40.00;;;;;;5065767;28;20448;-57
2022/04/12 08:04:09;;;;;;;3.13;2.83;;;18.40;40.00;;;;;;5063652;28;20217;-57
2022/04/12 08:06:34;;;;;;;6.50;3.70;;;18.40;40.00;;;;;;5062511;28;20249;-57
2022/04/12 08:09:00;;;;;;;4.53;3.60;;;18.40;40.00;;;;;;5057727;28;20447;-56
2022/04/12 08:11:26;;;;;;;9.03;3.77;;;18.40;40.00;;;;;;5065868;28;20233;-56
2022/04/12 08:13:51;;;;;;;3.77;3.47;;;18.40;40.80;;;;;;5058862;28;20649;-57
2022/04/12 08:16:17;;;;;;;3.93;2.77;;;18.40;40.00;;;;;;5057356;28;20683;-56
2022/04/12 08:18:46;;;;;;;2.67;2.47;;;18.40;40.00;;;;;;5065288;28;20236;-57
2022/04/12 08:21:12;;;;;;;3.17;2.90;;;18.40;40.00;;;;;;5064675;28;20226;-56
2022/04/12 08:23:37;;;;;;;5.20;2.97;;;18.40;39.90;;;;;;5059993;28;20469;-56
2022/04/12 08:26:03;;;;;;;3.90;2.90;;;18.40;39.90;;;;;;5062719;28;21214;-56
2022/04/12 08:28:28;;;;;;;3.63;3.33;;;18.50;40.10;;;;;;5058629;28;20214;-57
2022/04/12 08:30:54;;;;;;;3.33;2.30;;;18.50;40.10;;;;;;5057695;28;20218;-57
2022/04/12 08:33:19;;;;;;;3.00;2.80;;;18.50;40.10;;;;;;5064356;28;20234;-58
2022/04/12 08:35:45;;;;;;;3.57;3.23;;;18.50;40.10;;;;;;5062726;28;20312;-56
2022/04/12 08:38:10;;;;;;;5.10;3.10;;;18.50;40.10;;;;;;5063799;28;20591;-56
2022/04/12 08:40:36;;;;;;;3.70;3.40;;;18.50;40.00;;;;;;5063163;28;20261;-56
2022/04/12 08:43:02;;;;;;;3.50;3.20;;;18.50;40.00;;;;;;5064469;28;20229;-56
2022/04/12 08:45:28;;;;;;;7.60;3.40;;;18.50;40.00;;;;;;5058108;28;20242;-56
2022/04/12 08:47:53;;;;;;;3.53;3.23;;;18.50;40.00;;;;;;5059748;28;20225;-56
2022/04/12 08:50:23;;;;;;;2.77;2.57;;;18.50;40.00;;;;;;5061210;28;20226;-57
2022/04/12 08:52:50;;;;;;;4.33;3.50;;;18.50;40.00;;;;;;5060507;28;20275;-56
2022/04/12 08:55:16;;;;;;;4.47;3.60;;;18.50;40.00;;;;;;5063007;28;20494;-56
2022/04/12 08:57:41;;;;;;;3.30;3.00;;;18.50;40.00;;;;;;5059271;28;20856;-56
2022/04/12 09:00:08;;;;;;;4.27;2.70;;;18.50;40.00;;;;;;5057537;28;20225;-57
2022/04/12 09:02:33;;;;;;;3.33;3.03;;;18.50;40.10;;;;;;5059965;28;21136;-56
2022/04/12 09:04:59;;;;;;;4.33;3.03;;;18.50;40.00;;;;;;5060620;28;20454;-57
2022/04/12 09:07:26;;;;;;;2.83;2.50;;;18.50;40.10;;;;;;5063777;28;20248;-57
2022/04/12 09:09:53;;;;;;;3.83;2.83;;;18.50;40.10;;;;;;5064219;28;20239;-56
2022/04/12 09:12:18;;;;;;;3.10;2.80;;;18.50;40.10;;;;;;5065362;28;20458;-56
2022/04/12 09:14:52;;;;;;;6.70;3.80;;;18.50;40.00;;;;;;5062502;28;20801;-57
2022/04/12 09:17:27;;;;;;;3.07;2.87;;;18.50;40.10;;;;;;5061598;28;20304;-56
2022/04/12 09:19:53;;;;;;;3.87;3.40;;;18.50;40.10;;;;;;5064633;28;20469;-57
2022/04/12 09:22:23;;;;;;;3.03;2.77;;;18.50;40.00;;;;;;5059491;28;20452;-56
2022/04/12 09:24:54;;;;;;;3.73;2.80;;;18.50;40.10;;;;;;5062418;28;20218;-56
2022/04/12 09:27:22;;;;;;;4.40;3.50;;;18.50;40.10;;;;;;5061554;28;20489;-57
2022/04/12 09:29:53;;;;;;;2.90;2.37;;;18.50;40.10;;;;;;5058331;28;20431;-56
2022/04/12 09:32:26;;;;;;;5.27;3.10;;;18.50;40.10;;;;;;5061772;28;20444;-56
2022/04/12 09:34:53;;;;;;;2.90;2.23;;;18.50;40.10;;;;;;5065687;28;20449;-57
2022/04/12 09:37:19;;;;;;;2.90;2.70;;;18.50;40.10;;;;;;5062103;28;20512;-56
2022/04/12 09:39:55;;;;;;;2.87;2.50;;;18.50;40.10;;;;;;5062800;28;20417;-57
2022/04/12 09:42:55;;;;;;;3.30;3.00;;;18.50;40.10;;;;;;5060895;28;20438;-56
2022/04/12 09:45:30;;;;;;;2.80;2.60;;;18.50;40.10;;;;;;5059310;28;20471;-58
2022/04/12 09:47:59;;;;;;;4.33;3.07;;;18.50;40.10;;;;;;5060780;28;20426;-56
2022/04/12 09:50:27;;;;;;;2.53;2.33;;;18.50;40.20;;;;;;5059230;28;20448;-55
2022/04/12 09:52:53;;;;;;;2.93;2.73;;;18.50;40.20;;;;;;5058302;28;20934;-56
2022/04/12 09:55:36;;;;;;;2.87;2.67;;;18.50;40.20;;;;;;5062841;28;20591;-56
2022/04/12 09:58:02;;;;;;;3.60;2.80;;;18.50;40.20;;;;;;5058945;28;20466;-56
2022/04/12 10:00:30;;;;;;;3.53;3.23;;;18.50;40.20;;;;;;5059834;28;20469;-56
2022/04/12 10:02:58;;;;;;;3.17;2.87;;;18.50;40.20;;;;;;5056988;28;20469;-56
2022/04/12 10:05:25;;;;;;;2.47;2.27;;;18.50;40.20;;;;;;5060359;28;20426;-56
2022/04/12 10:07:51;;;;;;;2.47;2.30;;;18.50;40.20;;;;;;5062812;28;20433;-56
2022/04/12 10:10:19;;;;;;;2.87;2.67;;;18.50;40.20;;;;;;5059705;28;20467;-56
2022/04/12 10:12:46;;;;;;;2.63;2.43;;;18.50;40.20;;;;;;5041952;28;20419;-56
2022/04/12 10:15:12;;;;;;;2.47;2.27;;;18.50;40.20;;;;;;5059324;28;20475;-56
2022/04/12 10:17:40;;;;;;;2.73;2.53;;;18.50;40.30;;;;;;5061828;28;20780;-56
2022/04/12 10:20:07;;;;;;;2.90;2.70;;;18.50;40.30;;;;;;5062781;28;20909;-56
2022/04/12 10:22:33;;;;;;;2.30;2.10;;;18.50;40.30;;;;;;5059606;28;20429;-56
2022/04/12 10:25:01;;;;;;;3.20;2.40;;;18.50;40.30;;;;;;5043632;28;20484;-56
2022/04/12 10:27:28;;;;;;;2.97;2.73;;;18.50;40.30;;;;;;5056230;28;20470;-55
2022/04/12 10:30:15;;;;;;;2.50;2.30;;;18.50;40.30;;;;;;5057186;28;20455;-55
2022/04/12 10:32:57;;;;;;;2.93;2.63;;;18.50;40.30;;;;;;5061864;28;20421;-56
2022/04/12 10:35:23;;;;;;;2.70;2.50;;;18.50;40.30;;;;;;5064994;28;20465;-56
2022/04/12 10:37:51;;;;;;;2.50;2.30;;;18.50;40.30;;;;;;5060008;28;20455;-56
2022/04/12 10:40:17;;;;;;;3.33;2.20;;;18.50;40.40;;;;;;5060374;28;20236;-55
2022/04/12 10:42:43;;;;;;;2.83;2.57;;;18.50;40.30;;;;;;5056978;28;20435;-56
2022/04/12 10:45:10;;;;;;;2.83;2.60;;;18.50;40.30;;;;;;5055298;28;20495;-56
2022/04/12 10:47:42;;;;;;;2.33;2.23;;;18.40;40.30;;;;;;5062251;28;20542;-55
2022/04/12 10:50:13;;;;;;;2.53;2.33;;;18.40;40.20;;;;;;5057360;28;20452;-57
2022/04/12 10:52:42;;;;;;;2.10;2.00;;;18.40;40.20;;;;;;5057496;28;21060;-56
2022/04/12 10:55:09;;;;;;;3.07;2.40;;;18.40;40.20;;;;;;5059659;28;20437;-56
2022/04/12 10:57:35;;;;;;;2.57;2.30;;;18.40;40.20;;;;;;5058398;28;20409;-56
2022/04/12 11:00:08;;;;;;;2.37;2.10;;;18.40;40.20;;;;;;5057709;28;20803;-56
2022/04/12 11:02:44;;;;;;;2.07;1.97;;;18.40;40.20;;;;;;5061053;28;20313;-56
2022/04/12 11:05:44;;;;;;;3.60;2.30;;;18.40;40.20;;;;;;5056521;28;20457;-58
2022/04/12 11:08:15;;;;;;;2.20;2.00;;;18.40;40.30;;;;;;5058978;28;20518;-58
2022/04/12 11:10:42;;;;;;;2.47;2.27;;;18.40;40.30;;;;;;5065727;28;20467;-57
2022/04/12 11:13:10;;;;;;;2.70;2.50;;;18.40;40.30;;;;;;5055420;28;20426;-57
2022/04/12 11:15:38;;;;;;;2.37;2.10;;;18.40;40.30;;;;;;5060123;28;21965;-57
2022/04/12 11:18:05;;;;;;;2.10;2.00;;;18.40;40.30;;;;;;5060346;28;21449;-57
2022/04/12 11:20:32;;;;;;;2.00;1.90;;;18.40;40.30;;;;;;5061563;28;20494;-58
2022/04/12 11:23:02;;;;;;;2.10;2.00;;;18.40;40.30;;;;;;5060071;28;20912;-58
2022/04/12 11:25:27;;;;;;;2.20;2.10;;;18.40;40.30;;;;;;5066630;28;20462;-58
2022/04/12 11:28:00;;;;;;;2.30;2.20;;;18.40;40.30;;;;;;5057619;28;20426;-58
2022/04/12 11:30:27;;;;;;;2.13;2.03;;;18.40;40.30;;;;;;5065006;28;20238;-58
2022/04/12 11:32:54;;;;;;;2.23;2.03;;;18.40;40.30;;;;;;5066238;28;20450;-57
2022/04/12 11:35:21;;;;;;;1.80;1.70;;;18.40;40.30;;;;;;5060458;28;20446;-58
2022/04/12 11:37:47;;;;;;;1.90;1.80;;;18.40;40.30;;;;;;5062698;28;20425;-58
2022/04/12 11:40:13;;;;;;;2.17;2.07;;;18.40;40.30;;;;;;5064638;28;21165;-58
2022/04/12 11:42:38;;;;;;;2.47;2.27;;;18.40;40.30;;;;;;5064368;28;20267;-58
2022/04/12 11:45:05;;;;;;;2.57;2.47;;;18.40;40.50;;;;;;5061300;28;20219;-58
2022/04/12 11:47:33;;;;;;;2.07;1.97;;;18.40;40.30;;;;;;5051727;28;20713;-58
2022/04/12 11:49:59;;;;;;;1.97;1.77;;;18.40;40.30;;;;;;5065742;28;20462;-57
2022/04/12 11:52:26;;;;;;;2.70;1.97;;;18.40;40.30;;;;;;5064506;28;21024;-58
2022/04/12 11:54:52;;;;;;;1.90;1.80;;;18.40;40.30;;;;;;5062543;28;20482;-58
2022/04/12 11:57:23;;;;;;;2.00;1.80;;;18.40;40.30;;;;;;5056391;28;20418;-58
2022/04/12 11:59:53;;;;;;;2.10;2.00;;;18.40;40.30;;;;;;5059333;28;20746;-58
2022/04/12 12:02:20;;;;;;;1.93;1.83;;;18.40;40.30;;;;;;5061493;28;20916;-58
2022/04/12 12:04:49;;;;;;;1.80;1.70;;;18.40;40.30;;;;;;5058930;28;20429;-58
2022/04/12 12:07:15;;;;;;;2.00;1.90;;;18.40;40.30;;;;;;5063507;28;20437;-58
2022/04/12 12:10:11;;;;;;;2.33;2.23;;;18.40;40.30;;;;;;5064841;28;20914;-58
2022/04/12 12:12:40;;;;;;;2.50;2.30;;;18.40;40.30;;;;;;5051646;28;20414;-58
2022/04/12 12:15:19;;;;;;;2.10;1.90;;;18.40;40.30;;;;;;5062645;28;20601;-58
2022/04/12 12:17:49;;;;;;;2.00;1.90;;;18.40;40.30;;;;;;5062435;28;20979;-58
2022/04/12 12:20:17;;;;;;;1.70;1.60;;;18.40;40.30;;;;;;5062636;28;20422;-58
2022/04/12 12:22:44;;;;;;;1.90;1.80;;;18.40;40.30;;;;;;5063945;28;20747;-58
2022/04/12 12:25:18;;;;;;;1.70;1.60;;;18.40;40.30;;;;;;5064785;28;20489;-58
2022/04/12 12:27:51;;;;;;;1.87;1.77;;;18.40;40.30;;;;;;5058412;28;20468;-58
2022/04/12 12:30:25;;;;;;;2.20;2.00;;;18.40;40.30;;;;;;5065877;28;20436;-57
2022/04/12 12:32:52;;;;;;;1.50;1.30;;;18.40;40.30;;;;;;5060815;28;20507;-58
2022/04/12 12:35:18;;;;;;;2.30;2.03;;;18.40;40.30;;;;;;5058465;28;20468;-58
2022/04/12 12:37:46;;;;;;;1.73;1.63;;;18.40;40.30;;;;;;5061945;28;20421;-58
2022/04/12 12:40:23;;;;;;;1.90;1.80;;;18.40;40.30;;;;;;5063769;28;20460;-58
2022/04/12 12:42:51;;;;;;;2.40;1.80;;;18.40;40.30;;;;;;5059554;28;20846;-58
2022/04/12 12:45:22;;;;;;;2.20;1.80;;;18.40;40.30;;;;;;5062226;28;20454;-58
2022/04/12 12:47:51;;;;;;;2.07;1.97;;;18.40;40.40;;;;;;5063751;28;20526;-57
2022/04/12 12:50:19;;;;;;;1.70;1.60;;;18.40;40.30;;;;;;5059330;28;20926;-57